North Dighton, Massachusetts
Current Conditions -  °F | °C
As of 7:52 AM on Tuesday 21 Oct 2014 (Local Time) from KTAN Reporting Station
Broken Clouds Broken Clouds  
Wind Chill:   Ceiling: 8000
Heat Index:   Visibility: 7mi
Dew Point:   Wind: 0mph
Humidity: 96%   Direction: NA
Pressure: 29.96"   Gusts: NA
Location:  41.86°N, 71.12°W
Report Text: KTAN 211152Z AUTO 00000KT 7SM BKN080 08/07 A2996 RMK AO2 SLP145 60000 T00780072 10083 20067 55005
Loading
Personal Weather Stations






























Interactive Weather Map
Tropical Storm Tracking
New forecast layout! Learn more

10-Day Weather Forecast

Advertisements
Track Severe Weather on mobile